GLRB

Roberts International Airport

Monrovia, Liberia
METAR GLRB 151430Z 20013KT 9999 BKN018 30/25 Q1014 NOSIG
Observed Flight Rules
Aug-15 @ 14:30 UTC (31 minutes ago) Marginal Visual Flight Rules
Wind Visibility Clouds
200° at 13 knots 10,000+ meters
  • Broken at 1,800' AGL
Temperatures Readings
Current 30°C / 86°F
Dewpoint 25°C / 77°F
Humidity 75%
Altimeter 29.94" Hg
Pressure 1014 hPa
Elevation 18
METAR GLRB 151430Z 20013KT 9999 BKN018 30/25 Q1014 NOSIG
Observed Flight Rules
Aug-15 @ 14:30 UTC
(31 minutes ago)
MVFR
Wind Visibility
200° at 13 knots 10,000+ meters
Clouds
  • Broken at 1,800' AGL
Temperature Dewpoint
30°C / 86°F 25°C / 77°F
Humidity Altimeter Pressure
75% 29.94" Hg 1014 hPa